Allen, Kentucky
Current Conditions -  °F | °C
As of 3:35 PM on Sunday 21 Dec 2014 (Local Time) from KPBX Reporting Station
Clear Clear  
Wind Chill: 43°   Ceiling: Unl
Heat Index: 43°   Visibility: 10mi
Dew Point: 27°   Wind: 0mph
Humidity: 52%   Direction: NA
Pressure: 30.14"   Gusts: NA
Location:  37.61°N, 82.73°W
Report Text: KPBX 212035Z AUTO 00000KT 10SM CLR 06/M03 A3014 RMK AO2 T00631028
Loading
Personal Weather Stations






























Interactive Weather Map New forecast layout! Learn more

10-Day Weather Forecast

Advertisements
Track Severe Weather on mobile